METAR Data
IDs: Format: Raw Decoded Include TAF

Data at: 1126 UTC 26 Sep 2018

KBDH 261115Z AUTO 26007KT 10SM CLR 05/05 A3011 RMK AO2
KBDH 261055Z AUTO 25007KT 10SM CLR 06/05 A3011 RMK AO2
KBDH 261035Z AUTO 26005KT 10SM CLR 06/05 A3010 RMK AO2
KBDH 261015Z AUTO 27004KT 10SM CLR 06/05 A3009 RMK AO2
KBDH 260956Z AUTO 27006KT 10SM CLR 06/06 A3009 RMK AO2
KBDH 260935Z AUTO 27005KT 10SM CLR 06/06 A3009 RMK AO2
KBDH 260915Z AUTO 27006KT 10SM CLR 06/06 A3008 RMK AO2
KBDH 260855Z AUTO 27004KT 10SM CLR 07/06 A3008 RMK AO2
KBDH 260835Z AUTO 27004KT 10SM CLR 07/06 A3008 RMK AO2
KBDH 260815Z AUTO 28005KT 10SM CLR 07/06 A3008 RMK AO2
KBDH 260755Z AUTO 29005KT 10SM SCT009 08/07 A3008 RMK AO2
KBDH 260735Z AUTO 28006KT 10SM SCT009 BKN036 08/07 A3008 RMK AO2
KBDH 260715Z AUTO 27004KT 10SM BKN038 BKN085 08/07 A3008 RMK AO2
KBDH 260655Z AUTO 28005KT 10SM SCT085 08/07 A3007 RMK AO2
KBDH 260635Z AUTO 27005KT 10SM SCT039 08/07 A3006 RMK AO2
KBDH 260615Z AUTO 29005KT 10SM BKN041 BKN050 08/07 A3005 RMK AO2
KBDH 260555Z AUTO 28005KT 10SM SCT040 BKN048 BKN055 09/07 A3005 RMK AO2
KBDH 260535Z AUTO 29004KT 10SM OVC047 09/07 A3005 RMK AO2
KBDH 260515Z AUTO 29004KT 10SM SCT037 OVC050 09/07 A3006 RMK AO2
KBDH 260455Z AUTO 29005KT 10SM SCT040 OVC050 09/07 A3005 RMK AO2
KBDH 260435Z AUTO 28005KT 10SM OVC060 09/07 A3005 RMK AO2
KBDH 260415Z AUTO 28005KT 10SM SCT050 OVC060 09/07 A3005 RMK AO2
KBDH 260355Z AUTO 28004KT 10SM BKN050 OVC060 09/07 A3005 RMK AO2
KBDH 260335Z AUTO 26004KT 10SM BKN050 OVC060 09/07 A3004 RMK AO2
KBDH 260316Z AUTO 25004KT 10SM BKN060 OVC070 09/06 A3004 RMK AO2
KBDH 260255Z AUTO 25004KT 10SM SCT048 SCT050 BKN070 09/06 A3004 RMK AO2
KBDH 260235Z AUTO 23003KT 10SM SCT050 OVC055 09/06 A3004 RMK AO2
KBDH 260215Z AUTO 23004KT 10SM BKN055 08/06 A3004 RMK AO2
KBDH 260155Z AUTO 22003KT 10SM CLR 08/05 A3004 RMK AO2
KBDH 260135Z AUTO 23003KT 10SM CLR 08/05 A3004 RMK AO2
KBDH 260115Z AUTO 26003KT 10SM CLR 08/05 A3004 RMK AO2
KBDH 260055Z AUTO 25004KT 10SM CLR 09/05 A3003 RMK AO2
KBDH 260035Z AUTO 26004KT 10SM CLR 09/05 A3003 RMK AO2
KBDH 260015Z AUTO 27003KT 10SM CLR 10/06 A3002 RMK AO2
KBDH 252355Z AUTO 29004KT 10SM CLR 11/06 A3002 RMK AO2
KBDH 252335Z AUTO 30007KT 10SM CLR 12/06 A3002 RMK AO2
KBDH 252315Z AUTO 29005KT 10SM CLR 13/06 A3001 RMK AO2
KBDH 252255Z AUTO 29007KT 10SM CLR 13/06 A3001 RMK AO2
KBDH 252235Z AUTO 31005KT 10SM SCT032 13/06 A3000 RMK AO2
KBDH 252215Z AUTO 29012KT 10SM SCT030 13/06 A3000 RMK AO2
KBDH 252155Z AUTO 29009KT 10SM SCT070 13/06 A3000 RMK AO2
KBDH 252135Z AUTO 31009KT 10SM SCT070 12/06 A3001 RMK AO2
KBDH 252115Z AUTO 30011KT 10SM CLR 12/06 A3001 RMK AO2
KBDH 252055Z AUTO 31012KT 10SM SCT020 12/06 A3001 RMK AO2
KBDH 252035Z AUTO 33012KT 10SM SCT020 12/07 A3001 RMK AO2
KBDH 252015Z AUTO 32014G18KT 10SM SCT018 BKN029 11/08 A3002 RMK AO2
KBDH 251955Z AUTO 30016G20KT 7SM SCT016 BKN020 BKN029 11/08 A3002 RMK AO2
KBDH 251935Z AUTO 31014KT 7SM SCT022 BKN036 11/07 A3002 RMK AO2
KBDH 251915Z AUTO 31013G18KT 10SM SCT022 SCT027 OVC036 11/07 A3002 RMK AO2
KBDH 251855Z AUTO 30010KT 10SM SCT022 SCT028 OVC036 11/08 A3002 RMK AO2
KBDH 251835Z AUTO 29010KT 10SM SCT026 OVC036 11/08 A3002 RMK AO2
KBDH 251815Z AUTO 30010KT 10SM SCT021 BKN026 BKN032 11/08 A3002 RMK AO2
KBDH 251755Z AUTO 29007KT 10SM SCT018 SCT025 BKN034 11/08 A3002 RMK AO2
KBDH 251735Z AUTO 31008KT 10SM SCT023 BKN028 11/07 A3002 RMK AO2
KBDH 251715Z AUTO 32008KT 10SM SCT023 11/07 A3001 RMK AO2
KBDH 251655Z AUTO 30006KT 10SM SCT037 11/07 A3001 RMK AO2
KBDH 251635Z AUTO 29007KT 10SM BKN037 10/06 A3002 RMK AO2
KBDH 251615Z AUTO 30006KT 10SM SCT035 10/06 A3002 RMK AO2
KBDH 251555Z AUTO 31006KT 10SM CLR 10/06 A3002 RMK AO2
KBDH 251535Z AUTO 32005KT 10SM CLR 10/06 A3002 RMK AO2
KBDH 251515Z AUTO 33005KT 10SM CLR 10/06 A3001 RMK AO2
KBDH 251455Z AUTO 32005KT 10SM CLR 09/06 A3001 RMK AO2
KBDH 251435Z AUTO 32005KT 10SM CLR 09/06 A3002 RMK AO2
KBDH 251415Z AUTO 34005KT 10SM CLR 09/06 A3001 RMK AO2
KBDH 251355Z AUTO 33003KT 10SM CLR 09/06 A3002 RMK AO2
KBDH 251335Z AUTO 00000KT 10SM CLR 09/07 A3002 RMK AO2
KBDH 251315Z AUTO 00000KT 10SM CLR 09/06 A3000 RMK AO2
KBDH 251255Z AUTO 00000KT 10SM CLR 09/06 A3000 RMK AO2
KBDH 251235Z AUTO 35003KT 10SM CLR 09/06 A2999 RMK AO2
KBDH 251215Z AUTO 02004KT 10SM SCT019 09/06 A2998 RMK AO2
KBDH 251155Z AUTO 01007KT 10SM BKN019 09/06 A2997 RMK AO2
KBDH 251135Z AUTO 36008KT 10SM OVC019 09/06 A2997 RMK AO2
KBDH 251115Z AUTO 36009KT 10SM OVC019 09/06 A2997 RMK AO2
KBDH 251055Z AUTO 36010KT 10SM BKN017 OVC022 09/07 A2997 RMK AO2
KBDH 251035Z AUTO 36006KT 10SM OVC015 09/07 A2997 RMK AO2
KBDH 251015Z AUTO 36007KT 10SM OVC013 09/07 A2998 RMK AO2
KBDH 250955Z AUTO 35008KT 10SM OVC013 09/08 A2997 RMK AO2
KBDH 250935Z AUTO 33006KT 10SM OVC013 09/07 A2997 RMK AO2
KBDH 250915Z AUTO 33007KT 10SM OVC013 09/08 A2998 RMK AO2
KBDH 250855Z AUTO 33006KT 10SM OVC013 09/08 A2997 RMK AO2
KBDH 250835Z AUTO 32005KT 10SM OVC013 09/08 A2997 RMK AO2
KBDH 250815Z AUTO 30006KT 10SM OVC013 09/08 A2997 RMK AO2
KBDH 250755Z AUTO 32005KT 10SM OVC015 09/08 A2997 RMK AO2
KBDH 250736Z AUTO 32004KT 10SM OVC015 09/08 A2997 RMK AO2
KBDH 250715Z AUTO 31007KT 10SM OVC015 09/08 A2996 RMK AO2
KBDH 250655Z AUTO 30007KT 10SM OVC013 09/08 A2996 RMK AO2
KBDH 250636Z AUTO 31006KT 10SM OVC011 09/08 A2996 RMK AO2
KBDH 250615Z AUTO 30006KT 10SM BKN009 OVC019 09/08 A2996 RMK AO2
KBDH 250555Z AUTO 30004KT 10SM BKN011 OVC019 09/08 A2995 RMK AO2
KBDH 250535Z AUTO 31005KT 10SM BKN009 OVC021 09/08 A2995 RMK AO2
KBDH 250515Z AUTO 33005KT 10SM OVC009 09/08 A2994 RMK AO2
KBDH 250455Z AUTO 33006KT 10SM BKN009 09/09 A2994 RMK AO2
KBDH 250435Z AUTO 32008KT 10SM OVC009 09/09 A2994 RMK AO2
KBDH 250415Z AUTO 32010G15KT 10SM OVC009 09/09 A2994 RMK AO2
KBDH 250355Z AUTO 32007KT 10SM OVC007 09/09 A2994 RMK AO2
KBDH 250335Z AUTO 33008KT 10SM OVC005 09/09 A2994 RMK AO2
KBDH 250315Z AUTO 31015KT 10SM OVC005 09/09 A2994 RMK AO2
KBDH 250255Z AUTO 31015KT 10SM OVC005 09/09 A2993 RMK AO2
KBDH 250235Z AUTO 31012KT 10SM OVC005 10/09 A2993 RMK AO2
KBDH 250215Z AUTO 32008KT 10SM OVC007 10/10 A2992 RMK AO2
KBDH 250155Z AUTO 31009KT 10SM OVC005 10/10 A2992 RMK AO2
KBDH 250135Z AUTO 32011G17KT 10SM OVC005 10/10 A2992 RMK AO2
KBDH 250115Z AUTO 31014KT 10SM OVC005 11/11 A2990 RMK AO2
KBDH 250055Z AUTO 31009KT 10SM OVC005 11/11 A2989 RMK AO2
KBDH 250035Z AUTO 31009KT 10SM OVC005 11/11 A2988 RMK AO2
KBDH 250015Z AUTO 30010KT 10SM BKN005 OVC065 12/11 A2988 RMK AO2
KBDH 242355Z AUTO 31010KT 10SM SCT005 OVC065 12/12 A2986 RMK AO2
KBDH 242335Z AUTO 00000KT 10SM BKN065 12/11 A2984 RMK AO2